createdAt,value
2023-08-15T00:01:42.556Z,99050.25
2023-08-15T00:04:11.224Z,99063.91
2023-08-15T00:06:39.917Z,99054.22
2023-08-15T00:09:08.939Z,99058.22
2023-08-15T00:11:37.618Z,99072.19
2023-08-15T00:14:06.586Z,99081.03
2023-08-15T00:16:35.455Z,99073.13
2023-08-15T00:19:05.923Z,99070.84
2023-08-15T00:21:34.623Z,99075.97
2023-08-15T00:24:03.282Z,99077.19
2023-08-15T00:26:32.144Z,99077.84
2023-08-15T00:29:01.565Z,99070.63
2023-08-15T00:31:31.323Z,99065.47
2023-08-15T00:34:00.002Z,99066.91
2023-08-15T00:36:31.488Z,99066.03
2023-08-15T00:39:04.028Z,99057.66
2023-08-15T00:41:32.900Z,99062.75
2023-08-15T00:44:01.562Z,99064.19
2023-08-15T00:46:33.658Z,99059.50
2023-08-15T00:49:02.929Z,99054.16
2023-08-15T00:51:33.908Z,99061.22
2023-08-15T00:54:04.098Z,99065.66
2023-08-15T00:56:33.464Z,99065.97
2023-08-15T00:59:03.345Z,99063.25
2023-08-15T01:01:33.585Z,99053.91
2023-08-15T01:04:04.234Z,99059.34
2023-08-15T01:06:34.469Z,99054.97
2023-08-15T01:09:03.568Z,99056.38
2023-08-15T01:11:45.261Z,99053.59
2023-08-15T01:14:21.645Z,99049.19
2023-08-15T01:16:53.150Z,99049.19
2023-08-15T01:19:36.332Z,99044.53
2023-08-15T01:22:17.281Z,99040.78
2023-08-15T01:24:50.029Z,99043.13
2023-08-15T01:27:21.089Z,99039.13
2023-08-15T01:29:50.693Z,99037.94
2023-08-15T01:32:33.648Z,99041.75
2023-08-15T01:35:14.174Z,99037.03
2023-08-15T01:37:50.135Z,99046.44
2023-08-15T01:40:24.500Z,99046.22
2023-08-15T01:42:57.054Z,99047.53
2023-08-15T01:45:29.999Z,99033.28
2023-08-15T01:47:59.561Z,99041.59
2023-08-15T01:50:28.701Z,99037.97
2023-08-15T01:52:57.446Z,99031.91
2023-08-15T01:55:27.889Z,99028.06
2023-08-15T01:57:56.556Z,99028.66
2023-08-15T02:00:25.279Z,99024.44
2023-08-15T02:02:54.076Z,99010.41
2023-08-15T02:05:23.059Z,99015.78
2023-08-15T02:07:53.208Z,99010.91
2023-08-15T02:10:21.936Z,99009.69
2023-08-15T02:12:52.174Z,99007.19
2023-08-15T02:15:21.177Z,99006.88
2023-08-15T02:17:49.878Z,99002.84
2023-08-15T02:20:18.977Z,99008.88
2023-08-15T02:22:47.738Z,99003.44
2023-08-15T02:25:16.565Z,98998.41
2023-08-15T02:27:45.239Z,99002.03
2023-08-15T02:30:15.869Z,98994.97
2023-08-15T02:32:46.563Z,98987.13
2023-08-15T02:35:15.431Z,98980.16
2023-08-15T02:37:44.152Z,98984.28
2023-08-15T02:40:14.305Z,98978.25
2023-08-15T02:42:43.019Z,98973.91
2023-08-15T02:45:12.335Z,98971.59
2023-08-15T02:47:42.713Z,98969.16
2023-08-15T02:50:11.817Z,98968.97
2023-08-15T02:52:40.756Z,98968.75
2023-08-15T02:55:10.011Z,98963.63
2023-08-15T02:57:39.233Z,98969.16
2023-08-15T03:00:10.408Z,98971.38
2023-08-15T03:02:39.309Z,98968.16
2023-08-15T03:05:10.348Z,98960.78
2023-08-15T03:07:39.084Z,98948.81
2023-08-15T03:10:09.019Z,98949.00
2023-08-15T03:12:37.764Z,98938.50
2023-08-15T03:15:07.572Z,98942.66
2023-08-15T03:17:36.492Z,98935.09
2023-08-15T03:20:10.542Z,98932.06
2023-08-15T03:22:39.430Z,98937.00
2023-08-15T03:25:10.214Z,98934.38
2023-08-15T03:27:38.945Z,98933.56
2023-08-15T03:30:09.620Z,98936.28
2023-08-15T03:32:39.029Z,98934.09
2023-08-15T03:35:10.275Z,98928.66
2023-08-15T03:37:42.102Z,98927.94
2023-08-15T03:40:12.283Z,98919.16
2023-08-15T03:42:41.071Z,98919.47
2023-08-15T03:45:10.670Z,98920.78
2023-08-15T03:47:39.457Z,98913.13
2023-08-15T03:50:10.461Z,98918.97
2023-08-15T03:52:39.138Z,98913.53
2023-08-15T03:55:08.919Z,98910.50
2023-08-15T03:57:37.799Z,98908.38
2023-08-15T04:00:07.886Z,98913.53
2023-08-15T04:02:42.363Z,98910.50
2023-08-15T04:05:13.563Z,98913.91
2023-08-15T04:07:43.329Z,98916.34
2023-08-15T04:10:13.316Z,98916.13
2023-08-15T04:12:42.480Z,98909.63
2023-08-15T04:15:12.280Z,98911.31
2023-08-15T04:17:41.424Z,98909.56
2023-08-15T04:20:13.850Z,98914.75
2023-08-15T04:22:43.136Z,98912.28
2023-08-15T04:25:11.909Z,98919.34
2023-08-15T04:27:40.701Z,98911.00
2023-08-15T04:30:10.612Z,98918.09
2023-08-15T04:32:39.331Z,98917.00
2023-08-15T04:35:09.553Z,98917.00
2023-08-15T04:37:41.421Z,98917.41
2023-08-15T04:40:15.193Z,98916.50
2023-08-15T04:42:44.386Z,98916.19
2023-08-15T04:45:13.220Z,98918.91
2023-08-15T04:47:42.090Z,98913.56
2023-08-15T04:50:11.977Z,98918.50
2023-08-15T04:52:42.453Z,98921.22
2023-08-15T04:55:14.371Z,98922.34
2023-08-15T04:57:43.584Z,98927.78
2023-08-15T05:00:16.637Z,98933.72
2023-08-15T05:02:45.414Z,98932.00
2023-08-15T05:05:15.036Z,98933.13
2023-08-15T05:07:45.249Z,98933.13
2023-08-15T05:10:14.031Z,98935.84
2023-08-15T05:12:45.570Z,98932.25
2023-08-15T05:15:14.851Z,98928.63
2023-08-15T05:17:45.164Z,98929.94
2023-08-15T05:20:15.943Z,98936.69
2023-08-15T05:22:47.097Z,98934.59
2023-08-15T05:25:15.925Z,98938.13
2023-08-15T05:27:48.010Z,98938.31
2023-08-15T05:30:17.169Z,98925.22
2023-08-15T05:32:46.472Z,98933.88
2023-08-15T05:35:15.262Z,98936.28
2023-08-15T05:37:45.983Z,98938.13
2023-08-15T05:40:16.058Z,98940.75
2023-08-15T05:42:44.887Z,98943.38
2023-08-15T05:45:13.594Z,98946.09
2023-08-15T05:47:42.574Z,98947.38
2023-08-15T05:50:12.149Z,98945.47
2023-08-15T05:52:40.855Z,98957.38
2023-08-15T05:55:11.331Z,98955.06
2023-08-15T06:00:42.362Z,98958.69
2023-08-15T06:03:11.609Z,98959.09
2023-08-15T06:05:40.580Z,98954.94
2023-08-15T06:08:09.720Z,98955.63
2023-08-15T06:10:39.913Z,98956.03
2023-08-15T06:13:08.884Z,98949.19
2023-08-15T06:15:37.603Z,98949.59
2023-08-15T06:18:06.739Z,98942.91
2023-08-15T06:20:35.746Z,98946.94
2023-08-15T06:23:04.604Z,98946.03
2023-08-15T06:25:33.365Z,98952.97
2023-08-15T06:28:03.661Z,98951.75
2023-08-15T06:30:32.352Z,98945.84
2023-08-15T06:33:01.625Z,98951.09
2023-08-15T06:35:30.380Z,98948.41
2023-08-15T06:37:59.064Z,98943.31
2023-08-15T06:40:28.021Z,98947.72
2023-08-15T06:42:56.773Z,98949.69
2023-08-15T06:45:26.897Z,98950.09
2023-08-15T06:47:56.034Z,98949.84
2023-08-15T06:50:24.835Z,98952.00
2023-08-15T06:52:53.498Z,98942.75
2023-08-15T06:55:22.554Z,98944.38
2023-08-15T06:57:51.195Z,98943.63
2023-08-15T07:00:21.034Z,98944.28
2023-08-15T07:02:51.630Z,98943.84
2023-08-15T07:05:20.578Z,98939.50
2023-08-15T07:07:49.319Z,98945.34
2023-08-15T07:10:18.500Z,98950.00
2023-08-15T07:12:47.932Z,98943.78
2023-08-15T07:15:17.222Z,98943.31
2023-08-15T07:17:45.971Z,98940.91
2023-08-15T07:20:16.669Z,98940.28
2023-08-15T07:22:46.242Z,98939.00
2023-08-15T07:25:15.875Z,98950.13
2023-08-15T07:27:45.133Z,98952.03
2023-08-15T07:30:17.654Z,98948.56
2023-08-15T07:32:46.940Z,98951.13
2023-08-15T07:35:17.343Z,98948.72
2023-08-15T07:37:49.305Z,98948.38
2023-08-15T07:40:23.956Z,98942.94
2023-08-15T07:42:55.960Z,98941.47
2023-08-15T07:45:25.228Z,98942.75
2023-08-15T07:47:54.788Z,98947.56
2023-08-15T07:50:28.476Z,98949.31
2023-08-15T07:52:59.581Z,98956.44
2023-08-15T07:55:32.952Z,98959.00
2023-08-15T07:58:02.175Z,98961.38
2023-08-15T08:00:31.282Z,98967.34
2023-08-15T08:03:01.529Z,98973.28
2023-08-15T08:05:34.242Z,98979.25
2023-08-15T08:08:04.433Z,98980.03
2023-08-15T08:10:33.723Z,98980.84
2023-08-15T08:13:02.781Z,98977.78
2023-08-15T08:15:32.919Z,98975.53
2023-08-15T08:18:01.840Z,98979.72
2023-08-15T08:20:32.109Z,98975.50
2023-08-15T08:23:01.014Z,98972.91
2023-08-15T08:25:30.565Z,98969.81
2023-08-15T08:27:59.337Z,98972.03
2023-08-15T08:30:30.093Z,98974.94
2023-08-15T08:33:00.304Z,98980.53
2023-08-15T08:35:29.735Z,98981.97
2023-08-15T08:38:00.455Z,98982.13
2023-08-15T08:40:30.486Z,98981.34
2023-08-15T08:43:00.316Z,98986.81
2023-08-15T08:45:33.160Z,98990.00
2023-08-15T08:48:04.369Z,98994.84
2023-08-15T08:50:34.659Z,98985.97
2023-08-15T08:53:05.290Z,98999.31
2023-08-15T08:55:36.041Z,98991.25
2023-08-15T08:58:08.283Z,98995.75
2023-08-15T09:00:38.311Z,98994.81
2023-08-15T09:03:07.458Z,98999.75
2023-08-15T09:05:36.874Z,98991.31
2023-08-15T09:08:08.550Z,98984.69
2023-08-15T09:10:37.333Z,98981.50
2023-08-15T09:13:07.159Z,98978.09
2023-08-15T09:15:36.588Z,98975.50
2023-08-15T09:18:08.162Z,98974.22
2023-08-15T09:20:48.013Z,98971.81
2023-08-15T09:23:19.337Z,98960.38
2023-08-15T09:25:48.806Z,98951.22
2023-08-15T09:28:17.747Z,98944.84
2023-08-15T09:30:54.748Z,98941.13
2023-08-15T09:33:23.601Z,98944.53
2023-08-15T09:35:59.056Z,98933.88
2023-08-15T09:38:30.946Z,98930.56
2023-08-15T09:41:01.168Z,98932.06
2023-08-15T09:43:31.452Z,98925.41
2023-08-15T09:46:01.968Z,98927.72
2023-08-15T09:48:31.500Z,98932.50
2023-08-15T09:51:01.116Z,98937.47
2023-08-15T09:53:31.988Z,98934.75
2023-08-15T09:56:00.715Z,98925.78
2023-08-15T09:58:29.484Z,98934.53
2023-08-15T10:01:00.449Z,98938.56
2023-08-15T10:03:37.283Z,98930.66
2023-08-15T10:06:10.754Z,98924.97
2023-08-15T10:08:44.604Z,98924.84
2023-08-15T10:11:13.667Z,98921.53
2023-08-15T10:13:43.070Z,98924.53
2023-08-15T10:16:15.114Z,98926.28
2023-08-15T10:18:55.583Z,98923.22
2023-08-15T10:21:24.730Z,98924.94
2023-08-15T10:24:04.753Z,98922.25
2023-08-15T10:26:34.018Z,98923.81
2023-08-15T10:29:05.626Z,98927.56
2023-08-15T10:31:40.606Z,98920.63
2023-08-15T10:34:12.965Z,98919.84
2023-08-15T10:36:44.265Z,98927.41
2023-08-15T10:39:17.611Z,98916.00
2023-08-15T10:41:46.403Z,98919.22
2023-08-15T10:44:18.489Z,98920.88
2023-08-15T10:46:47.706Z,98920.56
2023-08-15T10:49:21.052Z,98925.69
2023-08-15T10:51:49.876Z,98929.41
2023-08-15T10:54:20.214Z,98909.31
2023-08-15T10:56:50.238Z,98915.81
2023-08-15T10:59:20.500Z,98913.88
2023-08-15T11:01:49.781Z,98906.44
2023-08-15T11:04:20.895Z,98910.41
2023-08-15T11:06:53.656Z,98916.69
2023-08-15T11:09:31.329Z,98908.81
2023-08-15T11:12:08.789Z,98906.91
2023-08-15T11:14:37.917Z,98913.50
2023-08-15T11:17:08.227Z,98916.72
2023-08-15T11:19:37.108Z,98906.94
2023-08-15T11:22:06.444Z,98903.81
2023-08-15T11:24:36.725Z,98908.56
2023-08-15T11:27:07.910Z,98908.91
2023-08-15T11:29:37.012Z,98909.06
2023-08-15T11:32:07.085Z,98913.09
2023-08-15T11:34:36.563Z,98906.88
2023-08-15T11:37:06.979Z,98912.28
2023-08-15T11:39:37.893Z,98915.16
2023-08-15T11:42:07.282Z,98907.75
2023-08-15T11:44:36.258Z,98912.06
2023-08-15T11:47:09.102Z,98912.19
2023-08-15T11:49:46.171Z,98906.66
2023-08-15T11:52:15.268Z,98904.22
2023-08-15T11:54:47.542Z,98909.81
2023-08-15T11:57:16.511Z,98909.09
2023-08-15T11:59:45.442Z,98904.53
2023-08-15T12:02:14.411Z,98922.41
2023-08-15T12:04:43.077Z,98910.75
2023-08-15T12:07:12.137Z,98909.47
2023-08-15T12:09:41.593Z,98905.63
2023-08-15T12:12:21.091Z,98909.72
2023-08-15T12:14:51.491Z,98907.75
2023-08-15T12:17:21.612Z,98910.16
2023-08-15T12:19:50.374Z,98910.34
2023-08-15T12:22:19.573Z,98904.03
2023-08-15T12:24:48.597Z,98905.91
2023-08-15T12:27:19.737Z,98907.56
2023-08-15T12:30:13.654Z,98913.91
2023-08-15T12:32:37.992Z,98916.28
2023-08-15T12:35:08.059Z,98917.88
2023-08-15T12:37:37.370Z,98907.63
2023-08-15T12:40:14.811Z,98913.19
2023-08-15T12:42:52.630Z,98921.47
2023-08-15T12:45:21.758Z,98920.22
2023-08-15T12:47:51.079Z,98918.72
2023-08-15T12:50:20.265Z,98920.47
2023-08-15T12:52:49.096Z,98911.13
2023-08-15T12:55:18.364Z,98904.13
2023-08-15T12:57:47.210Z,98904.19
2023-08-15T13:00:19.640Z,98897.97
2023-08-15T13:02:48.699Z,98895.22
2023-08-15T13:05:17.852Z,98908.81
2023-08-15T13:07:46.840Z,98907.97
2023-08-15T13:10:15.828Z,98905.84
2023-08-15T13:12:44.874Z,98898.09
2023-08-15T13:15:13.761Z,98907.41
2023-08-15T13:17:44.997Z,98894.38
2023-08-15T13:20:15.871Z,98898.03
2023-08-15T13:22:44.722Z,98896.19
2023-08-15T13:25:13.529Z,98897.06
2023-08-15T13:27:42.222Z,98884.03
2023-08-15T13:30:11.536Z,98881.63
2023-08-15T13:44:13.893Z,98872.13
2023-08-15T13:46:42.696Z,98862.06
2023-08-15T13:49:12.710Z,98861.38
2023-08-15T13:51:43.598Z,98858.22
2023-08-15T13:54:13.227Z,98849.81
2023-08-15T13:56:42.483Z,98848.41
2023-08-15T13:59:12.656Z,98846.38
2023-08-15T14:01:41.468Z,98851.28
2023-08-15T14:04:13.360Z,98862.66
2023-08-15T14:06:42.328Z,98859.66
2023-08-15T14:09:11.064Z,98856.78
2023-08-15T14:11:39.962Z,98853.19
2023-08-15T14:14:08.693Z,98858.94
2023-08-15T14:16:38.814Z,98864.53
2023-08-15T14:19:07.874Z,98870.72
2023-08-15T14:21:36.591Z,98871.44
2023-08-15T14:24:05.717Z,98881.69
2023-08-15T14:26:34.507Z,98884.94
2023-08-15T14:29:03.224Z,98875.41
2023-08-15T14:31:32.645Z,98867.69
2023-08-15T14:34:02.766Z,98870.31
2023-08-15T14:36:31.665Z,98863.66
2023-08-15T14:39:00.404Z,98866.16
2023-08-15T14:41:29.121Z,98866.25
2023-08-15T14:43:57.822Z,98880.09
2023-08-15T14:46:26.665Z,98879.75
2023-08-15T14:48:55.444Z,98881.91
2023-08-15T14:51:25.553Z,98880.81
2023-08-15T14:53:54.244Z,98882.13
2023-08-15T14:56:26.587Z,98881.16
2023-08-15T14:58:55.560Z,98888.47
2023-08-15T15:01:24.387Z,98892.28
2023-08-15T15:03:53.312Z,98906.78
2023-08-15T15:06:22.037Z,98922.81
2023-08-15T15:08:52.207Z,98924.97
2023-08-15T15:11:20.953Z,98927.22
2023-08-15T15:13:49.923Z,98928.28
2023-08-15T15:16:18.809Z,98918.94
2023-08-15T15:18:47.463Z,98914.81
2023-08-15T15:21:16.169Z,98920.63
2023-08-15T15:23:44.958Z,98927.97
2023-08-15T15:26:15.080Z,98938.00
2023-08-15T15:28:46.281Z,98935.03
2023-08-15T15:31:22.704Z,98945.13
2023-08-15T15:34:04.458Z,98942.13
2023-08-15T15:36:48.762Z,98960.03
2023-08-15T15:39:17.709Z,98978.72
2023-08-15T15:41:48.427Z,98977.38
2023-08-15T15:44:17.420Z,98978.03
2023-08-15T15:46:54.524Z,98973.59
2023-08-15T15:49:23.698Z,98973.78
2023-08-15T15:51:52.662Z,98981.84
2023-08-15T15:54:21.629Z,98996.97
2023-08-15T15:56:51.961Z,99003.91
2023-08-15T15:59:21.772Z,99005.31
2023-08-15T16:01:53.483Z,99011.38
2023-08-15T16:04:22.717Z,99012.06
2023-08-15T16:06:52.227Z,99025.03
2023-08-15T16:09:23.552Z,99032.31
2023-08-15T16:11:54.969Z,99045.63
2023-08-15T16:14:25.088Z,99059.22
2023-08-15T16:16:54.792Z,99067.72
2023-08-15T16:19:24.474Z,99068.09
2023-08-15T16:21:54.307Z,99073.47
2023-08-15T16:24:24.415Z,99071.84
2023-08-15T16:26:55.198Z,99072.56
2023-08-15T16:29:24.323Z,99069.38
2023-08-15T16:31:53.289Z,99073.25
2023-08-15T16:34:22.819Z,99075.13
2023-08-15T16:36:51.771Z,99087.88
2023-08-15T16:39:20.561Z,99091.75
2023-08-15T16:41:49.340Z,99093.63
2023-08-15T16:44:20.721Z,99088.44
2023-08-15T16:46:49.708Z,99090.31
2023-08-15T16:49:18.791Z,99077.22
2023-08-15T16:51:51.218Z,99082.75
2023-08-15T16:54:20.333Z,99093.09
2023-08-15T16:56:52.043Z,99085.88
2023-08-15T16:59:22.293Z,99086.91
2023-08-15T17:01:51.119Z,99077.75
2023-08-15T17:04:19.960Z,99071.78
2023-08-15T17:06:48.854Z,99069.22
2023-08-15T17:09:18.385Z,99063.97
2023-08-15T17:11:47.276Z,99057.13
2023-08-15T17:14:17.756Z,99057.00
2023-08-15T17:16:48.321Z,99060.09
2023-08-15T17:19:19.377Z,99058.00
2023-08-15T17:21:48.733Z,99059.03
2023-08-15T17:24:18.762Z,99065.25
2023-08-15T17:26:47.807Z,99067.41
2023-08-15T17:29:16.609Z,99075.81
2023-08-15T17:31:46.354Z,99076.34
2023-08-15T17:34:16.737Z,99077.97
2023-08-15T17:36:45.991Z,99083.41
2023-08-15T17:39:15.109Z,99060.84
2023-08-15T17:41:46.034Z,99028.41
2023-08-15T17:44:15.039Z,99005.84
2023-08-15T17:46:43.909Z,98994.50
2023-08-15T17:49:12.756Z,98988.06
2023-08-15T17:51:42.904Z,98981.19
2023-08-15T17:54:11.974Z,98979.94
2023-08-15T17:56:40.710Z,98985.19
2023-08-15T17:59:09.594Z,98988.75
2023-08-15T18:01:38.741Z,98994.91
2023-08-15T18:04:08.171Z,98998.06
2023-08-15T18:09:29.962Z,99000.06
2023-08-15T18:12:01.295Z,99004.63
2023-08-15T18:14:30.224Z,99013.63
2023-08-15T18:16:59.479Z,98998.63
2023-08-15T18:19:28.368Z,99016.59
2023-08-15T18:22:00.293Z,99021.25
2023-08-15T18:24:31.256Z,99022.47
2023-08-15T18:27:00.125Z,99032.66
2023-08-15T18:29:31.353Z,99041.75
2023-08-15T18:32:00.511Z,99047.91
2023-08-15T18:34:30.370Z,99056.94
2023-08-15T18:36:59.444Z,99066.50
2023-08-15T18:39:29.945Z,99058.44
2023-08-15T18:41:58.708Z,99062.84
2023-08-15T18:44:28.010Z,99064.19
2023-08-15T18:46:57.495Z,99065.97
2023-08-15T18:49:28.375Z,99065.31
2023-08-15T18:51:57.136Z,99073.56
2023-08-15T18:54:28.104Z,99071.34
2023-08-15T18:56:58.737Z,99073.59
2023-08-15T18:59:27.500Z,99072.78
2023-08-15T19:01:56.463Z,99065.22
2023-08-15T19:04:26.328Z,99079.59
2023-08-15T19:06:55.416Z,99084.59
2023-08-15T19:09:24.339Z,99090.44
2023-08-15T19:11:53.035Z,99091.41
2023-08-15T19:14:23.295Z,99085.47
2023-08-15T19:16:52.050Z,99081.88
2023-08-15T19:19:20.848Z,99082.72
2023-08-15T19:21:49.795Z,99081.09
2023-08-15T19:24:19.251Z,99079.47
2023-08-15T19:26:48.295Z,99078.56
2023-08-15T19:29:17.051Z,99087.97
2023-08-15T19:31:48.296Z,99083.59
2023-08-15T19:34:20.203Z,99080.22
2023-08-15T19:36:49.363Z,99082.31
2023-08-15T19:39:18.169Z,99079.22
2023-08-15T19:41:50.538Z,99075.38
2023-08-15T19:44:19.427Z,99078.94
2023-08-15T19:46:49.661Z,99078.94
2023-08-15T19:49:18.335Z,99083.66
2023-08-15T19:51:50.396Z,99084.63
2023-08-15T19:54:19.711Z,99087.03
2023-08-15T19:56:48.531Z,99098.97
2023-08-15T19:59:18.065Z,99095.91
2023-08-15T20:01:49.358Z,99090.75
2023-08-15T20:04:21.759Z,99105.41
2023-08-15T20:06:51.441Z,99098.34
2023-08-15T20:09:22.433Z,99100.94
2023-08-15T20:11:51.652Z,99093.53
2023-08-15T20:14:22.305Z,99093.97
2023-08-15T20:16:52.594Z,99104.47
2023-08-15T20:19:21.631Z,99106.41
2023-08-15T20:21:51.684Z,99107.22
2023-08-15T20:24:20.796Z,99103.19
2023-08-15T20:26:49.603Z,99098.53
2023-08-15T20:29:18.562Z,99090.78
2023-08-15T20:31:47.348Z,99099.00
2023-08-15T20:34:17.449Z,99103.19
2023-08-15T20:36:46.252Z,99103.84
2023-08-15T20:39:14.907Z,99097.72
2023-08-15T20:41:43.713Z,99098.34
2023-08-15T20:44:12.368Z,99093.53
2023-08-15T20:46:42.151Z,99088.06
2023-08-15T20:49:11.452Z,99092.41
2023-08-15T20:51:41.719Z,99094.34
2023-08-15T20:54:10.403Z,99088.06
2023-08-15T20:56:41.169Z,99089.38
2023-08-15T20:59:09.982Z,99093.22
2023-08-15T21:01:38.874Z,99099.50
2023-08-15T21:04:08.261Z,99103.53
2023-08-15T21:06:37.297Z,99109.81
2023-08-15T21:09:08.036Z,99111.75
2023-08-15T21:11:36.864Z,99118.84
2023-08-15T21:14:06.059Z,99124.28
2023-08-15T21:16:35.077Z,99126.06
2023-08-15T21:19:03.804Z,99132.50
2023-08-15T21:21:32.433Z,99136.06
2023-08-15T21:24:01.136Z,99146.69
2023-08-15T21:26:31.454Z,99141.22
2023-08-15T21:29:00.173Z,99134.94
2023-08-15T21:31:30.096Z,99146.38
2023-08-15T21:33:59.008Z,99142.34
2023-08-15T21:36:27.629Z,99147.47
2023-08-15T21:38:56.306Z,99147.16
2023-08-15T21:41:25.534Z,99145.38
2023-08-15T21:43:55.866Z,99146.97
2023-08-15T21:46:24.761Z,99150.84
2023-08-15T21:48:53.577Z,99156.31
2023-08-15T21:51:22.271Z,99165.66
2023-08-15T21:53:51.055Z,99164.34
2023-08-15T21:56:19.853Z,99169.81
2023-08-15T21:58:48.459Z,99161.44
2023-08-15T22:01:18.528Z,99161.63
2023-08-15T22:03:47.420Z,99175.13
2023-08-15T22:06:16.285Z,99176.09
2023-08-15T22:08:44.954Z,99183.66
2023-08-15T22:11:14.372Z,99179.78
2023-08-15T22:13:43.246Z,99174.31
2023-08-15T22:16:12.015Z,99176.56
2023-08-15T22:18:42.064Z,99179.31
2023-08-15T22:21:11.183Z,99186.53
2023-08-15T22:23:39.949Z,99183.81
2023-08-15T22:26:08.587Z,99189.44
2023-08-15T22:28:37.248Z,99191.19
2023-08-15T22:31:05.945Z,99187.66
2023-08-15T22:33:34.881Z,99191.53
2023-08-15T22:36:05.518Z,99207.75
2023-08-15T22:38:34.445Z,99202.59
2023-08-15T22:41:03.217Z,99204.19
2023-08-15T22:43:31.929Z,99222.84
2023-08-15T22:46:00.703Z,99227.34
2023-08-15T22:48:29.503Z,99224.28
2023-08-15T22:50:58.368Z,99224.91
2023-08-15T22:53:28.444Z,99231.34
2023-08-15T22:56:01.525Z,99233.19
2023-08-15T22:58:30.607Z,99239.63
2023-08-15T23:00:59.430Z,99229.81
2023-08-15T23:03:28.616Z,99232.69
2023-08-15T23:06:03.327Z,99234.78
2023-08-15T23:08:33.438Z,99231.22
2023-08-15T23:11:02.190Z,99233.16
2023-08-15T23:13:31.030Z,99230.69
2023-08-15T23:15:59.894Z,99235.00
2023-08-15T23:18:28.658Z,99228.25
2023-08-15T23:20:57.502Z,99225.53
2023-08-15T23:23:26.208Z,99229.81
2023-08-15T23:25:56.263Z,99229.00
2023-08-15T23:28:24.960Z,99234.66
2023-08-15T23:30:53.880Z,99234.16
2023-08-15T23:33:22.621Z,99224.53
2023-08-15T23:35:51.491Z,99224.97
2023-08-15T23:38:21.260Z,99223.53
2023-08-15T23:40:49.959Z,99214.97
2023-08-15T23:43:20.001Z,99221.88
2023-08-15T23:45:49.130Z,99225.41
2023-08-15T23:48:18.437Z,99225.09
2023-08-15T23:50:48.213Z,99230.25
2023-08-15T23:53:16.938Z,99227.63
2023-08-15T23:55:45.652Z,99227.00
2023-08-15T23:58:14.332Z,99221.81
